Terminal Aerodrome Forecast
Issued by NWS

Home | Current Version | Previous Version | Text Only | Print | Product List | Glossary On
Versions: 1 2 3 4 5 6 7 8 9 10 11 12 13 14 15 16 17 18 19
000
FTUS42 KMLB 052328
TAFISM
TAF
KISM 052328Z 0600/0624 29014KT P6SM SKC
     FM060300 31008KT P6SM SKC
     FM061400 31012KT P6SM FEW040
      AMD NOT SKED 0602/0611=

USA.gov is the U.S. government's official web portal to all federal, state and local government web resources and services.